Terminal Aerodrome Forecast
Issued by NWS

Home | Current Version | Previous Version | Text Only | Print | Product List | Glossary Off
Versions: 1 2 3 4 5 6 7 8 9 10 11 12 13 14 15 16 17 18 19 20 21 22 23

401
FTUS43 KGRB 241607 AAB
TAFMTW
TAF AMD
KMTW 241607Z 2416/2512 04014G24KT 3/4SM -SN OVC007
      TEMPO 2416/2418 2SM -FZRASN SCT007 OVC015
     FM241800 03018G28KT 3SM -FZDZSN OVC008
     FM250000 01013G23KT 2SM -FZDZSN OVC008
     FM250500 35012G21KT 3SM -SN OVC005
     FM250800 32010G18KT 6SM -SN OVC012=

USA.gov is the U.S. government's official web portal to all federal, state and local government web resources and services.